Time;durP1;ratioP1;P1;durP2;ratioP2;P2;SDS_P1;SDS_P2;PMS_P1;PMS_P2;Temp;Humidity;BMP_temperature;BMP_pressure;BME280_temperature;BME280_humidity;BME280_pressure;Samples;Min_cycle;Max_cycle;Signal;HPM_P1;HPM_P2
2021/05/31 00:01:43;;;;;;;8.20;3.28;;;;;;;;;;5070188;28;20439;-76
2021/05/31 00:04:08;;;;;;;6.53;3.40;;;;;;;;;;5053757;28;20063;-76
2021/05/31 00:06:36;;;;;;;4.85;2.90;;;;;;;;;;5054545;28;20029;-75
2021/05/31 00:09:02;;;;;;;5.25;3.00;;;;;;;;;;5067099;28;20113;-77
2021/05/31 00:11:27;;;;;;;4.60;2.80;;;;;;;;;;5051394;28;20096;-75
2021/05/31 00:13:52;;;;;;;5.10;2.75;;;;;;;;;;5057663;28;20017;-76
2021/05/31 00:16:17;;;;;;;4.50;2.75;;;;;;;;;;5051483;28;20079;-75
2021/05/31 00:18:43;;;;;;;5.78;2.83;;;;;;;;;;5051084;28;20024;-75
2021/05/31 00:21:08;;;;;;;5.47;3.30;;;;;;;;;;5052023;28;20431;-77
2021/05/31 00:23:33;;;;;;;5.53;3.30;;;;;;;;;;5051061;28;20062;-76
2021/05/31 00:25:58;;;;;;;5.20;3.30;;;;;;;;;;5052266;28;20037;-75
2021/05/31 00:28:23;;;;;;;5.38;3.17;;;;;;;;;;5069862;28;20532;-75
2021/05/31 00:30:49;;;;;;;8.13;3.40;;;;;;;;;;5050945;28;20017;-75
2021/05/31 00:33:14;;;;;;;7.65;3.30;;;;;;;;;;5050438;28;20048;-76
2021/05/31 00:35:39;;;;;;;5.43;3.00;;;;;;;;;;5050907;28;20025;-76
2021/05/31 00:38:04;;;;;;;7.70;3.20;;;;;;;;;;5057642;28;20033;-77
2021/05/31 00:40:29;;;;;;;6.15;3.63;;;;;;;;;;5062982;28;20017;-75
2021/05/31 00:42:55;;;;;;;6.38;3.67;;;;;;;;;;5068251;28;20031;-77
2021/05/31 00:45:21;;;;;;;5.63;3.50;;;;;;;;;;5069991;28;20021;-77
2021/05/31 00:47:46;;;;;;;4.47;2.97;;;;;;;;;;5052403;28;20031;-77
2021/05/31 00:50:12;;;;;;;7.22;3.33;;;;;;;;;;5038811;28;20060;-77
2021/05/31 00:52:38;;;;;;;6.65;3.30;;;;;;;;;;5060458;28;20058;-77
2021/05/31 00:55:03;;;;;;;6.93;3.67;;;;;;;;;;5059959;28;20033;-78
2021/05/31 00:57:28;;;;;;;5.05;3.67;;;;;;;;;;5050539;28;20107;-77
2021/05/31 00:59:54;;;;;;;7.85;3.92;;;;;;;;;;5056881;28;20505;-77
2021/05/31 01:02:19;;;;;;;7.53;3.75;;;;;;;;;;5058724;28;20021;-78
2021/05/31 01:04:44;;;;;;;6.38;3.58;;;;;;;;;;5056850;28;20032;-77
2021/05/31 01:07:18;;;;;;;7.72;3.50;;;;;;;;;;5068515;28;20044;-77
2021/05/31 01:10:07;;;;;;;5.40;3.35;;;;;;;;;;5063140;28;20024;-77
2021/05/31 01:12:52;;;;;;;9.55;3.78;;;;;;;;;;5050308;28;20025;-77
2021/05/31 01:15:23;;;;;;;7.70;3.90;;;;;;;;;;5057072;28;20055;-77
2021/05/31 01:18:06;;;;;;;8.32;4.50;;;;;;;;;;5056979;28;20032;-77
2021/05/31 01:20:34;;;;;;;7.60;3.90;;;;;;;;;;5062434;28;20056;-75
2021/05/31 01:23:02;;;;;;;9.85;4.45;;;;;;;;;;5059713;28;20025;-76
2021/05/31 01:25:37;;;;;;;7.25;4.25;;;;;;;;;;5046859;28;20068;-74
2021/05/31 01:28:11;;;;;;;6.00;3.53;;;;;;;;;;5056095;28;20369;-75
2021/05/31 01:30:40;;;;;;;6.85;3.38;;;;;;;;;;5067117;28;20082;-75
2021/05/31 01:33:06;;;;;;;6.70;4.15;;;;;;;;;;5050600;28;20136;-76
2021/05/31 01:35:33;;;;;;;7.53;4.10;;;;;;;;;;5066999;28;20454;-75
2021/05/31 01:37:59;;;;;;;8.02;3.80;;;;;;;;;;5064080;28;20023;-75
2021/05/31 01:40:24;;;;;;;7.13;4.03;;;;;;;;;;5049154;28;20029;-75
2021/05/31 01:42:51;;;;;;;6.80;3.92;;;;;;;;;;5066031;28;20111;-75
2021/05/31 01:45:16;;;;;;;7.80;4.30;;;;;;;;;;5055509;28;20031;-76
2021/05/31 01:47:42;;;;;;;9.73;4.18;;;;;;;;;;5067989;28;20036;-77
2021/05/31 01:50:08;;;;;;;8.07;4.53;;;;;;;;;;5068795;28;20099;-76
2021/05/31 01:52:33;;;;;;;8.57;4.10;;;;;;;;;;5055156;28;20119;-75
2021/05/31 01:54:59;;;;;;;7.68;4.50;;;;;;;;;;5050049;28;20115;-76
2021/05/31 01:57:25;;;;;;;7.35;4.22;;;;;;;;;;5069106;28;20468;-76
2021/05/31 01:59:51;;;;;;;7.38;3.80;;;;;;;;;;5066828;28;20115;-75
2021/05/31 02:02:16;;;;;;;8.27;3.92;;;;;;;;;;5050215;28;20078;-76
2021/05/31 02:04:42;;;;;;;7.03;4.25;;;;;;;;;;5054558;28;20066;-75
2021/05/31 02:07:07;;;;;;;7.40;3.83;;;;;;;;;;5049158;28;20032;-76
2021/05/31 02:09:32;;;;;;;7.13;3.80;;;;;;;;;;5062544;28;20463;-77
2021/05/31 02:11:57;;;;;;;6.38;4.07;;;;;;;;;;5068357;28;20412;-76
2021/05/31 02:14:30;;;;;;;6.55;4.20;;;;;;;;;;5061631;28;20027;-77
2021/05/31 02:17:13;;;;;;;9.85;4.43;;;;;;;;;;5055467;28;20267;-77
2021/05/31 02:19:39;;;;;;;6.18;3.97;;;;;;;;;;5049544;28;20017;-75
2021/05/31 02:22:05;;;;;;;6.38;3.53;;;;;;;;;;5048921;28;20013;-77
2021/05/31 02:24:34;;;;;;;6.95;3.85;;;;;;;;;;5049690;28;20025;-76
2021/05/31 02:26:59;;;;;;;6.93;3.97;;;;;;;;;;5062675;28;20029;-75
2021/05/31 02:29:25;;;;;;;7.13;3.40;;;;;;;;;;5049008;28;20435;-76
2021/05/31 02:31:52;;;;;;;7.45;4.35;;;;;;;;;;5050220;28;20483;-77
2021/05/31 02:34:17;;;;;;;5.25;3.60;;;;;;;;;;5068064;28;20045;-78
2021/05/31 02:36:42;;;;;;;6.38;3.90;;;;;;;;;;5068100;28;20021;-76
2021/05/31 02:39:07;;;;;;;7.68;3.53;;;;;;;;;;5061354;28;20620;-76
2021/05/31 02:41:32;;;;;;;6.90;4.03;;;;;;;;;;5048825;28;20028;-76
2021/05/31 02:43:57;;;;;;;6.93;3.38;;;;;;;;;;5062667;28;20454;-76
2021/05/31 02:46:23;;;;;;;8.43;3.92;;;;;;;;;;5055906;28;20068;-75
2021/05/31 02:48:48;;;;;;;6.30;3.92;;;;;;;;;;5061717;28;20016;-76
2021/05/31 02:51:13;;;;;;;6.45;3.63;;;;;;;;;;5063389;28;20055;-76
2021/05/31 02:53:38;;;;;;;5.93;3.58;;;;;;;;;;5049076;28;20021;-75
2021/05/31 02:56:03;;;;;;;5.80;3.42;;;;;;;;;;5066583;28;20025;-75
2021/05/31 02:58:29;;;;;;;6.88;3.83;;;;;;;;;;5068150;28;20091;-76
2021/05/31 03:00:54;;;;;;;6.13;3.65;;;;;;;;;;5071267;28;20485;-75
2021/05/31 03:03:20;;;;;;;6.20;3.90;;;;;;;;;;5065213;28;20062;-75
2021/05/31 03:05:45;;;;;;;6.00;4.05;;;;;;;;;;5071922;28;20099;-76
2021/05/31 03:08:10;;;;;;;6.97;3.90;;;;;;;;;;5053137;28;20102;-75
2021/05/31 03:10:35;;;;;;;7.22;3.88;;;;;;;;;;5063367;28;20464;-75
2021/05/31 03:13:01;;;;;;;8.52;4.10;;;;;;;;;;5066976;28;20028;-75
2021/05/31 03:15:27;;;;;;;8.23;4.20;;;;;;;;;;5063854;28;20039;-75
2021/05/31 03:17:53;;;;;;;8.13;4.20;;;;;;;;;;5052207;28;20017;-74
2021/05/31 03:20:18;;;;;;;6.32;4.20;;;;;;;;;;5065911;28;20462;-75
2021/05/31 03:22:44;;;;;;;6.15;3.97;;;;;;;;;;5064893;28;20012;-74
2021/05/31 03:25:09;;;;;;;5.35;3.42;;;;;;;;;;5068164;28;20032;-75
2021/05/31 03:27:35;;;;;;;6.45;3.78;;;;;;;;;;5058798;28;20102;-76
2021/05/31 03:30:00;;;;;;;6.43;3.63;;;;;;;;;;5071243;28;20774;-75
2021/05/31 03:32:25;;;;;;;7.82;4.30;;;;;;;;;;5059097;28;20021;-76
2021/05/31 03:34:51;;;;;;;6.45;4.00;;;;;;;;;;5058939;28;20025;-76
2021/05/31 03:37:16;;;;;;;8.40;4.32;;;;;;;;;;5064141;28;20485;-75
2021/05/31 03:39:42;;;;;;;10.70;4.68;;;;;;;;;;5052775;28;20036;-75
2021/05/31 03:42:08;;;;;;;7.45;4.50;;;;;;;;;;5058290;28;20020;-75
2021/05/31 03:44:33;;;;;;;8.23;4.72;;;;;;;;;;5056284;28;20020;-76
2021/05/31 03:46:58;;;;;;;8.02;4.88;;;;;;;;;;5054500;28;20025;-76
2021/05/31 03:49:23;;;;;;;7.53;4.60;;;;;;;;;;5065212;28;20021;-77
2021/05/31 03:51:48;;;;;;;9.88;4.60;;;;;;;;;;5068013;28;20474;-76
2021/05/31 03:54:14;;;;;;;7.32;4.18;;;;;;;;;;5055236;28;20032;-76
2021/05/31 03:56:39;;;;;;;6.38;4.57;;;;;;;;;;5063287;28;20021;-76
2021/05/31 03:59:05;;;;;;;8.65;4.63;;;;;;;;;;5066599;28;20089;-75
2021/05/31 04:01:30;;;;;;;8.60;4.75;;;;;;;;;;5070551;28;20028;-75
2021/05/31 04:03:57;;;;;;;8.20;4.28;;;;;;;;;;5070704;28;20024;-76
2021/05/31 04:11:50;;;;;;;9.50;4.30;;;;;;;;;;5051673;28;20402;-76
2021/05/31 04:14:16;;;;;;;6.85;4.15;;;;;;;;;;5064786;28;20013;-76
2021/05/31 04:16:43;;;;;;;7.03;4.22;;;;;;;;;;5059381;28;20031;-76
2021/05/31 04:19:08;;;;;;;7.57;4.82;;;;;;;;;;5064567;28;20024;-76
2021/05/31 04:21:34;;;;;;;5.57;4.18;;;;;;;;;;5051970;28;20452;-76
2021/05/31 04:23:59;;;;;;;8.02;4.40;;;;;;;;;;5055448;28;20016;-77
2021/05/31 04:26:25;;;;;;;6.15;4.00;;;;;;;;;;5070345;28;20487;-77
2021/05/31 04:28:50;;;;;;;8.02;3.78;;;;;;;;;;5053879;28;20035;-76
2021/05/31 04:31:15;;;;;;;5.60;3.80;;;;;;;;;;5053728;28;20029;-77
2021/05/31 04:33:41;;;;;;;8.50;4.07;;;;;;;;;;5070005;28;20040;-79
2021/05/31 04:36:06;;;;;;;7.47;3.90;;;;;;;;;;5068730;28;20024;-76
2021/05/31 04:38:32;;;;;;;5.90;4.05;;;;;;;;;;5050478;28;20516;-77
2021/05/31 04:40:57;;;;;;;5.35;3.80;;;;;;;;;;5051940;28;20025;-77
2021/05/31 04:43:22;;;;;;;5.85;3.80;;;;;;;;;;5062341;28;20056;-76
2021/05/31 04:45:48;;;;;;;6.00;4.40;;;;;;;;;;5051529;28;20013;-76
2021/05/31 04:48:13;;;;;;;6.28;3.92;;;;;;;;;;5069124;28;20036;-77
2021/05/31 04:50:38;;;;;;;5.82;4.20;;;;;;;;;;5050784;28;20029;-75
2021/05/31 04:53:04;;;;;;;5.15;3.63;;;;;;;;;;5057368;28;20379;-75
2021/05/31 04:55:29;;;;;;;6.35;4.40;;;;;;;;;;5050185;28;20041;-76
2021/05/31 04:57:54;;;;;;;5.90;3.63;;;;;;;;;;5062446;28;20040;-75
2021/05/31 05:00:20;;;;;;;5.38;3.85;;;;;;;;;;5051282;28;20052;-77
2021/05/31 05:02:45;;;;;;;7.13;3.97;;;;;;;;;;5054735;28;20036;-77
2021/05/31 05:05:11;;;;;;;7.72;4.30;;;;;;;;;;5063242;28;20035;-77
2021/05/31 05:07:44;;;;;;;7.20;4.57;;;;;;;;;;5051858;28;20080;-77
2021/05/31 05:10:09;;;;;;;6.50;4.40;;;;;;;;;;5068079;28;20353;-77
2021/05/31 05:12:34;;;;;;;6.78;3.88;;;;;;;;;;5065144;28;20028;-78
2021/05/31 05:15:00;;;;;;;8.07;4.40;;;;;;;;;;5067277;28;20492;-78
2021/05/31 05:17:25;;;;;;;6.22;4.22;;;;;;;;;;5052544;28;20264;-78
2021/05/31 05:19:50;;;;;;;9.55;4.30;;;;;;;;;;5053468;28;20023;-77
2021/05/31 05:22:15;;;;;;;8.30;4.50;;;;;;;;;;5055984;28;20024;-78
2021/05/31 05:24:41;;;;;;;8.38;5.13;;;;;;;;;;5058929;28;20259;-78
2021/05/31 05:27:06;;;;;;;7.15;4.78;;;;;;;;;;5069805;28;20094;-77
2021/05/31 05:29:32;;;;;;;7.30;4.70;;;;;;;;;;5056015;28;20071;-77
2021/05/31 05:31:58;;;;;;;8.45;4.50;;;;;;;;;;5067643;28;20028;-78
2021/05/31 05:34:23;;;;;;;6.85;4.65;;;;;;;;;;5051096;28;20079;-77
2021/05/31 05:36:54;;;;;;;6.28;4.00;;;;;;;;;;5068888;28;20052;-77
2021/05/31 05:49:37;;;;;;;9.57;5.90;;;;;;;;;;5049391;28;20255;-77
2021/05/31 05:52:03;;;;;;;8.20;5.67;;;;;;;;;;5049495;28;20418;-77
2021/05/31 05:54:29;;;;;;;8.50;5.10;;;;;;;;;;5049197;28;20298;-78
2021/05/31 05:56:54;;;;;;;8.70;5.43;;;;;;;;;;5060461;28;20027;-77
2021/05/31 05:59:19;;;;;;;8.93;5.97;;;;;;;;;;5061966;28;20013;-77
2021/05/31 06:01:45;;;;;;;9.90;5.10;;;;;;;;;;5059472;28;21090;-78
2021/05/31 06:04:10;;;;;;;7.55;5.00;;;;;;;;;;5058347;28;20025;-77
2021/05/31 06:06:35;;;;;;;7.18;5.10;;;;;;;;;;5062439;28;20033;-78
2021/05/31 06:09:00;;;;;;;11.38;5.07;;;;;;;;;;5054075;28;20786;-76
2021/05/31 06:11:25;;;;;;;9.98;5.03;;;;;;;;;;5049336;28;20040;-78
2021/05/31 06:13:52;;;;;;;7.53;5.30;;;;;;;;;;5055882;28;20170;-78
2021/05/31 06:16:17;;;;;;;6.43;4.80;;;;;;;;;;5049346;28;20029;-77
2021/05/31 06:18:42;;;;;;;7.78;4.85;;;;;;;;;;5055611;28;20012;-78
2021/05/31 06:21:07;;;;;;;8.13;4.82;;;;;;;;;;5062212;28;20811;-77
2021/05/31 06:23:33;;;;;;;13.20;5.20;;;;;;;;;;5057542;28;20433;-79
2021/05/31 06:25:58;;;;;;;7.97;5.20;;;;;;;;;;5049550;28;20036;-80
2021/05/31 06:28:23;;;;;;;9.50;5.45;;;;;;;;;;5061641;28;20031;-78
2021/05/31 06:30:48;;;;;;;8.23;4.68;;;;;;;;;;5068964;28;20036;-79
2021/05/31 06:33:16;;;;;;;9.52;5.38;;;;;;;;;;5068584;28;20049;-78
2021/05/31 06:35:42;;;;;;;12.32;5.03;;;;;;;;;;5054283;28;20024;-78
2021/05/31 06:38:07;;;;;;;7.13;4.70;;;;;;;;;;5071095;28;20078;-78
2021/05/31 06:40:33;;;;;;;8.63;4.72;;;;;;;;;;5055486;28;20025;-78
2021/05/31 06:42:58;;;;;;;6.53;4.80;;;;;;;;;;5052820;28;20059;-79
2021/05/31 06:45:25;;;;;;;9.18;4.53;;;;;;;;;;5065756;28;20017;-78
2021/05/31 06:47:50;;;;;;;8.50;4.32;;;;;;;;;;5072207;28;20039;-78
2021/05/31 06:50:16;;;;;;;10.10;5.35;;;;;;;;;;5072748;28;20012;-78
2021/05/31 06:52:41;;;;;;;7.75;4.32;;;;;;;;;;5066064;28;20024;-79
2021/05/31 06:55:07;;;;;;;7.10;4.72;;;;;;;;;;5056362;28;20013;-77
2021/05/31 06:57:33;;;;;;;7.35;4.70;;;;;;;;;;5055095;28;20460;-78
2021/05/31 06:59:58;;;;;;;6.75;3.75;;;;;;;;;;5064583;28;20397;-77
2021/05/31 07:02:23;;;;;;;7.05;4.00;;;;;;;;;;5055381;28;20021;-78
2021/05/31 07:04:50;;;;;;;6.40;4.53;;;;;;;;;;5066473;28;20017;-75
2021/05/31 07:07:19;;;;;;;6.25;3.75;;;;;;;;;;5055137;28;20091;-75
2021/05/31 07:09:44;;;;;;;9.32;4.75;;;;;;;;;;5072297;28;20016;-75
2021/05/31 07:12:09;;;;;;;5.75;4.13;;;;;;;;;;5073384;28;20017;-76
2021/05/31 07:14:36;;;;;;;7.40;4.03;;;;;;;;;;5071869;28;20163;-76
2021/05/31 07:17:02;;;;;;;5.72;3.88;;;;;;;;;;5058451;28;20032;-76
2021/05/31 07:19:27;;;;;;;4.80;3.90;;;;;;;;;;5065632;28;20051;-77
2021/05/31 07:21:53;;;;;;;7.82;4.78;;;;;;;;;;5059785;28;20464;-77
2021/05/31 07:24:18;;;;;;;10.38;5.45;;;;;;;;;;5057899;28;20483;-77
2021/05/31 07:26:43;;;;;;;10.40;4.35;;;;;;;;;;5073123;28;20379;-77
2021/05/31 07:29:08;;;;;;;6.03;4.70;;;;;;;;;;5072264;28;20016;-78
2021/05/31 07:31:34;;;;;;;6.78;4.60;;;;;;;;;;5072718;28;20024;-78
2021/05/31 07:33:59;;;;;;;6.30;4.10;;;;;;;;;;5072188;28;20453;-77
2021/05/31 07:36:25;;;;;;;6.43;4.00;;;;;;;;;;5062745;28;20029;-77
2021/05/31 07:38:50;;;;;;;5.70;4.07;;;;;;;;;;5053679;28;20031;-77
2021/05/31 07:41:16;;;;;;;7.47;4.63;;;;;;;;;;5053157;28;20029;-78
2021/05/31 07:43:41;;;;;;;6.53;4.35;;;;;;;;;;5035525;28;20029;-78
2021/05/31 07:46:07;;;;;;;6.85;4.03;;;;;;;;;;5056088;28;20017;-77
2021/05/31 07:48:32;;;;;;;6.32;4.43;;;;;;;;;;5057711;28;20738;-77
2021/05/31 07:51:17;;;;;;;6.20;3.83;;;;;;;;;;5067509;28;20094;-78
2021/05/31 07:53:44;;;;;;;7.03;3.95;;;;;;;;;;5067130;28;20114;-76
2021/05/31 07:56:09;;;;;;;6.13;4.13;;;;;;;;;;5052849;28;20029;-78
2021/05/31 07:58:34;;;;;;;6.00;3.92;;;;;;;;;;5066237;28;20452;-77
2021/05/31 08:01:01;;;;;;;7.43;3.78;;;;;;;;;;5052660;28;20380;-77
2021/05/31 08:03:26;;;;;;;5.10;2.72;;;;;;;;;;5052804;28;20024;-79
2021/05/31 08:05:51;;;;;;;5.78;3.47;;;;;;;;;;5054933;28;20418;-79
2021/05/31 08:08:16;;;;;;;5.50;3.38;;;;;;;;;;5058142;28;20060;-78
2021/05/31 08:10:42;;;;;;;8.40;3.55;;;;;;;;;;5064040;28;20107;-79
2021/05/31 08:13:08;;;;;;;6.25;3.15;;;;;;;;;;5053366;28;20025;-77
2021/05/31 08:15:34;;;;;;;5.80;3.13;;;;;;;;;;5063737;28;20021;-78
2021/05/31 08:18:01;;;;;;;5.88;2.72;;;;;;;;;;5059388;28;20096;-78
2021/05/31 08:20:26;;;;;;;5.45;3.30;;;;;;;;;;5064861;28;20021;-78
2021/05/31 08:22:51;;;;;;;6.03;3.00;;;;;;;;;;5071051;28;20017;-76
2021/05/31 08:25:17;;;;;;;4.70;2.80;;;;;;;;;;5058605;28;20024;-77
2021/05/31 08:27:42;;;;;;;4.18;2.85;;;;;;;;;;5059045;28;20391;-78
2021/05/31 08:30:08;;;;;;;4.70;3.13;;;;;;;;;;5052334;28;20037;-78
2021/05/31 08:32:33;;;;;;;4.05;2.85;;;;;;;;;;5064230;28;20025;-78
2021/05/31 08:34:59;;;;;;;4.38;2.70;;;;;;;;;;5077247;28;20050;-78
2021/05/31 08:37:24;;;;;;;6.38;3.60;;;;;;;;;;5070855;28;20020;-78
2021/05/31 08:39:53;;;;;;;5.47;3.38;;;;;;;;;;5070918;28;20115;-78
2021/05/31 08:42:18;;;;;;;5.28;3.78;;;;;;;;;;5064069;28;20038;-77
2021/05/31 08:44:43;;;;;;;4.82;3.42;;;;;;;;;;5060313;28;20028;-79
2021/05/31 08:47:10;;;;;;;5.50;3.80;;;;;;;;;;5050775;28;20036;-78
2021/05/31 08:49:35;;;;;;;6.25;3.55;;;;;;;;;;5067188;28;20407;-77
2021/05/31 08:52:00;;;;;;;10.25;3.85;;;;;;;;;;5054581;28;20021;-77
2021/05/31 08:54:25;;;;;;;6.10;3.70;;;;;;;;;;5050510;28;20027;-78
2021/05/31 08:56:51;;;;;;;5.28;3.30;;;;;;;;;;5057144;28;20271;-78
2021/05/31 08:59:16;;;;;;;7.15;3.65;;;;;;;;;;5050860;28;20463;-77
2021/05/31 09:01:41;;;;;;;7.45;4.38;;;;;;;;;;5051295;28;20025;-77
2021/05/31 09:04:11;;;;;;;10.02;4.30;;;;;;;;;;5057998;28;20020;-77
2021/05/31 09:06:36;;;;;;;6.63;4.53;;;;;;;;;;5068884;28;20809;-78
2021/05/31 09:09:02;;;;;;;8.55;4.30;;;;;;;;;;5051473;28;20040;-77
2021/05/31 09:11:28;;;;;;;8.93;3.90;;;;;;;;;;5069927;28;20115;-78
2021/05/31 09:13:56;;;;;;;7.18;4.22;;;;;;;;;;5069395;28;20024;-78
2021/05/31 09:16:22;;;;;;;5.00;4.03;;;;;;;;;;5063891;28;20483;-78
2021/05/31 09:18:49;;;;;;;7.15;3.63;;;;;;;;;;5062815;28;20017;-77
2021/05/31 09:21:16;;;;;;;5.72;3.92;;;;;;;;;;5057189;28;20013;-78
2021/05/31 09:23:41;;;;;;;6.50;4.43;;;;;;;;;;5044229;28;20028;-78
2021/05/31 09:26:07;;;;;;;6.43;3.70;;;;;;;;;;5067723;28;20028;-77
2021/05/31 09:28:32;;;;;;;6.15;4.32;;;;;;;;;;5062828;28;20024;-78
2021/05/31 09:30:58;;;;;;;5.20;3.85;;;;;;;;;;5064031;28;20077;-77
2021/05/31 09:33:23;;;;;;;5.72;4.18;;;;;;;;;;5068274;28;20056;-77
2021/05/31 09:35:50;;;;;;;7.10;4.13;;;;;;;;;;5069776;28;20017;-78
2021/05/31 09:38:16;;;;;;;8.15;4.30;;;;;;;;;;5069288;28;20431;-79
2021/05/31 09:40:55;;;;;;;8.73;3.97;;;;;;;;;;5069814;28;20070;-78
2021/05/31 09:43:22;;;;;;;5.35;3.90;;;;;;;;;;5069494;28;20102;-77
2021/05/31 09:45:48;;;;;;;6.07;4.10;;;;;;;;;;5062735;28;20020;-79
2021/05/31 09:48:14;;;;;;;5.95;3.55;;;;;;;;;;5068945;28;20032;-77
2021/05/31 09:50:39;;;;;;;5.55;3.55;;;;;;;;;;5064254;28;20025;-78
2021/05/31 09:53:06;;;;;;;6.63;3.78;;;;;;;;;;5068198;28;20036;-79
2021/05/31 09:55:41;;;;;;;6.28;4.30;;;;;;;;;;5057787;28;20092;-77
2021/05/31 09:58:08;;;;;;;6.75;3.78;;;;;;;;;;5056775;28;20029;-79
2021/05/31 10:00:33;;;;;;;6.07;4.32;;;;;;;;;;5051646;28;20036;-77
2021/05/31 10:03:15;;;;;;;7.63;3.90;;;;;;;;;;5067481;28;20074;-78
2021/05/31 10:10:35;;;;;;;5.80;3.77;;;;;;;;;;5050891;28;20021;-78
2021/05/31 10:13:00;;;;;;;5.20;3.42;;;;;;;;;;5062931;28;20581;-78
2021/05/31 10:15:29;;;;;;;8.15;3.25;;;;;;;;;;5050006;28;20096;-80
2021/05/31 10:17:58;;;;;;;5.60;3.40;;;;;;;;;;5056465;28;20035;-77
2021/05/31 10:20:24;;;;;;;6.50;3.13;;;;;;;;;;5062488;28;20258;-78
2021/05/31 10:22:50;;;;;;;4.68;3.25;;;;;;;;;;5050025;28;20029;-77
2021/05/31 10:25:16;;;;;;;6.72;3.88;;;;;;;;;;5049946;28;20574;-79
2021/05/31 10:27:42;;;;;;;5.85;3.78;;;;;;;;;;5061194;28;20504;-77
2021/05/31 10:30:09;;;;;;;6.43;3.80;;;;;;;;;;5057636;28;20064;-77
2021/05/31 10:32:35;;;;;;;8.45;3.95;;;;;;;;;;5067313;28;20040;-78
2021/05/31 10:35:00;;;;;;;5.20;3.63;;;;;;;;;;5068994;28;20028;-78
2021/05/31 10:37:30;;;;;;;5.40;3.78;;;;;;;;;;5058835;28;20092;-78
2021/05/31 10:40:12;;;;;;;4.60;3.38;;;;;;;;;;5063849;28;20043;-78
2021/05/31 10:42:38;;;;;;;5.55;3.35;;;;;;;;;;5062347;28;20483;-78
2021/05/31 10:45:14;;;;;;;6.15;3.63;;;;;;;;;;5055725;28;20021;-78
2021/05/31 10:47:40;;;;;;;8.68;3.78;;;;;;;;;;5069048;28;20075;-78
2021/05/31 10:50:14;;;;;;;6.63;3.83;;;;;;;;;;5061800;28;20048;-79
2021/05/31 10:52:48;;;;;;;7.43;4.15;;;;;;;;;;5056824;28;20623;-78
2021/05/31 10:55:14;;;;;;;7.25;4.57;;;;;;;;;;5051266;28;20013;-78
2021/05/31 10:57:39;;;;;;;7.70;4.10;;;;;;;;;;5049507;28;20442;-78
2021/05/31 11:00:05;;;;;;;5.22;3.80;;;;;;;;;;5048827;28;20029;-77
2021/05/31 11:02:30;;;;;;;7.57;3.72;;;;;;;;;;5062908;28;20107;-78
2021/05/31 11:05:08;;;;;;;3.93;3.00;;;;;;;;;;5055472;28;20086;-77
2021/05/31 11:07:34;;;;;;;4.22;3.13;;;;;;;;;;5056971;28;20291;-78
2021/05/31 11:09:59;;;;;;;5.22;3.78;;;;;;;;;;5066708;28;20025;-78
2021/05/31 11:12:28;;;;;;;5.32;3.25;;;;;;;;;;5056863;28;20017;-78
2021/05/31 11:15:04;;;;;;;5.00;3.30;;;;;;;;;;5056684;28;20056;-78
2021/05/31 11:17:29;;;;;;;4.57;2.88;;;;;;;;;;5053036;28;20349;-77
2021/05/31 11:19:54;;;;;;;5.28;3.60;;;;;;;;;;5048620;28;20125;-78
2021/05/31 11:22:27;;;;;;;5.03;3.40;;;;;;;;;;5059512;28;20020;-78
2021/05/31 11:24:53;;;;;;;6.38;3.72;;;;;;;;;;5060961;28;20031;-78
2021/05/31 11:27:23;;;;;;;5.05;3.42;;;;;;;;;;5072041;28;20051;-78
2021/05/31 11:29:48;;;;;;;5.68;3.30;;;;;;;;;;5075771;28;20080;-77
2021/05/31 11:32:15;;;;;;;4.50;3.20;;;;;;;;;;5052300;28;20052;-77
2021/05/31 11:34:50;;;;;;;5.18;3.33;;;;;;;;;;5052561;28;20400;-78
2021/05/31 11:37:19;;;;;;;3.85;2.70;;;;;;;;;;5054425;28;20033;-77
2021/05/31 11:39:46;;;;;;;4.05;2.58;;;;;;;;;;5071576;28;20080;-79
2021/05/31 11:42:12;;;;;;;4.32;2.97;;;;;;;;;;5071464;28;20052;-77
2021/05/31 11:44:38;;;;;;;4.15;2.55;;;;;;;;;;5056101;28;20013;-79
2021/05/31 11:47:04;;;;;;;5.47;3.00;;;;;;;;;;5051972;28;20029;-78
2021/05/31 11:49:31;;;;;;;7.05;3.03;;;;;;;;;;5059028;28;20027;-78
2021/05/31 11:52:07;;;;;;;4.82;2.67;;;;;;;;;;5060955;28;20369;-77
2021/05/31 11:54:33;;;;;;;6.15;2.92;;;;;;;;;;5051719;28;20021;-76
2021/05/31 11:57:03;;;;;;;3.70;2.70;;;;;;;;;;5054594;28;20029;-77
2021/05/31 11:59:28;;;;;;;;;;;;;;;;;;5068873;28;20016;-77
2021/05/31 12:01:54;;;;;;;5.07;2.88;;;;;;;;;;5059105;28;19999;-78
2021/05/31 12:04:19;;;;;;;4.97;2.83;;;;;;;;;;5052114;28;20021;-78
2021/05/31 12:06:55;;;;;;;5.10;2.90;;;;;;;;;;5060451;28;20475;-78
2021/05/31 12:09:20;;;;;;;3.70;2.80;;;;;;;;;;5052997;28;20098;-78
2021/05/31 12:11:45;;;;;;;4.73;2.73;;;;;;;;;;5071275;28;20024;-78
2021/05/31 12:14:11;;;;;;;4.77;2.90;;;;;;;;;;5070992;28;20275;-78
2021/05/31 12:16:37;;;;;;;4.00;2.80;;;;;;;;;;5070533;28;20664;-76
2021/05/31 12:19:13;;;;;;;7.97;3.53;;;;;;;;;;5063361;28;20028;-78
2021/05/31 12:21:41;;;;;;;6.55;2.97;;;;;;;;;;5060320;28;20787;-77
2021/05/31 12:24:08;;;;;;;4.78;3.13;;;;;;;;;;5064386;28;20025;-78
2021/05/31 12:26:33;;;;;;;4.05;2.65;;;;;;;;;;5070626;28;20040;-78
2021/05/31 12:28:59;;;;;;;6.03;3.13;;;;;;;;;;5070799;28;20016;-77
2021/05/31 12:31:31;;;;;;;4.40;2.88;;;;;;;;;;5070008;28;20052;-78
2021/05/31 12:33:58;;;;;;;4.88;2.97;;;;;;;;;;5070098;28;20036;-77
2021/05/31 12:36:23;;;;;;;6.35;2.67;;;;;;;;;;5056467;28;20364;-77
2021/05/31 12:38:48;;;;;;;4.60;2.63;;;;;;;;;;5064587;28;20463;-79
2021/05/31 12:41:13;;;;;;;4.13;2.70;;;;;;;;;;5050610;28;20456;-78
2021/05/31 12:43:40;;;;;;;6.28;2.92;;;;;;;;;;5064592;28;20023;-77
2021/05/31 12:46:14;;;;;;;5.03;3.10;;;;;;;;;;5070660;28;20024;-77
2021/05/31 12:48:39;;;;;;;3.97;2.92;;;;;;;;;;5062258;28;20067;-77
2021/05/31 12:51:15;;;;;;;6.93;3.58;;;;;;;;;;5050995;28;20028;-79
2021/05/31 12:53:41;;;;;;;3.30;2.70;;;;;;;;;;5050501;28;20025;-77
2021/05/31 12:56:06;;;;;;;4.07;2.45;;;;;;;;;;5064872;28;20363;-77
2021/05/31 12:58:32;;;;;;;3.95;2.50;;;;;;;;;;5051241;28;20021;-77
2021/05/31 13:00:58;;;;;;;5.45;2.70;;;;;;;;;;5056756;28;20111;-77
2021/05/31 13:03:29;;;;;;;4.05;2.40;;;;;;;;;;5069841;28;20028;-77
2021/05/31 13:05:54;;;;;;;5.72;3.25;;;;;;;;;;5070132;28;20021;-77
2021/05/31 13:08:20;;;;;;;4.47;3.20;;;;;;;;;;5069543;28;20089;-77
2021/05/31 13:10:52;;;;;;;5.70;2.88;;;;;;;;;;5069540;28;20617;-78
2021/05/31 13:13:21;;;;;;;4.68;2.95;;;;;;;;;;5051051;28;20032;-76
2021/05/31 13:15:47;;;;;;;5.32;2.67;;;;;;;;;;5056017;28;20464;-76
2021/05/31 13:18:22;;;;;;;4.28;3.20;;;;;;;;;;5063895;28;20070;-76
2021/05/31 13:20:49;;;;;;;5.05;3.25;;;;;;;;;;5065032;28;20449;-75
2021/05/31 13:23:16;;;;;;;5.18;3.08;;;;;;;;;;5067830;28;20024;-75
2021/05/31 13:25:45;;;;;;;4.28;2.90;;;;;;;;;;5051274;28;20019;-76
2021/05/31 13:28:12;;;;;;;3.53;2.72;;;;;;;;;;5068001;28;20024;-77
2021/05/31 13:30:38;;;;;;;6.22;3.28;;;;;;;;;;5051731;28;20013;-77
2021/05/31 13:33:05;;;;;;;7.88;3.75;;;;;;;;;;5068394;28;20048;-77
2021/05/31 13:35:30;;;;;;;4.97;3.10;;;;;;;;;;5064554;28;20111;-78
2021/05/31 13:37:56;;;;;;;5.28;2.75;;;;;;;;;;5056108;28;20119;-76
2021/05/31 13:40:32;;;;;;;4.65;2.92;;;;;;;;;;5049594;28;20036;-76
2021/05/31 13:43:08;;;;;;;3.45;2.50;;;;;;;;;;5063402;28;20103;-77
2021/05/31 13:45:36;;;;;;;4.53;2.58;;;;;;;;;;5058931;28;20856;-77
2021/05/31 13:48:02;;;;;;;4.93;2.80;;;;;;;;;;5060002;28;20125;-76
2021/05/31 13:50:28;;;;;;;4.10;2.80;;;;;;;;;;5057027;28;20086;-77
2021/05/31 13:52:54;;;;;;;3.50;2.53;;;;;;;;;;5049811;28;20021;-77
2021/05/31 13:55:19;;;;;;;4.65;2.67;;;;;;;;;;5049951;28;20033;-77
2021/05/31 13:57:47;;;;;;;3.20;2.20;;;;;;;;;;5056475;28;20071;-78
2021/05/31 14:00:13;;;;;;;4.82;2.78;;;;;;;;;;5062931;28;20025;-77
2021/05/31 14:02:38;;;;;;;3.58;2.22;;;;;;;;;;5063949;28;20024;-77
2021/05/31 14:05:04;;;;;;;4.90;2.40;;;;;;;;;;5062678;28;20074;-76
2021/05/31 14:07:29;;;;;;;3.83;2.58;;;;;;;;;;5069181;28;20470;-76
2021/05/31 14:09:55;;;;;;;4.32;2.53;;;;;;;;;;5049510;28;20060;-75
2021/05/31 14:12:21;;;;;;;7.65;2.67;;;;;;;;;;5055998;28;20021;-78
2021/05/31 14:14:46;;;;;;;4.47;2.47;;;;;;;;;;5050464;28;20025;-77
2021/05/31 14:17:11;;;;;;;5.87;2.57;;;;;;;;;;5050658;28;20080;-77
2021/05/31 14:19:36;;;;;;;6.28;2.45;;;;;;;;;;5062671;28;20317;-77
2021/05/31 14:22:03;;;;;;;3.78;2.58;;;;;;;;;;5077987;28;20016;-74
2021/05/31 14:24:29;;;;;;;3.22;2.13;;;;;;;;;;5063803;28;20297;-76
2021/05/31 14:26:54;;;;;;;3.90;2.50;;;;;;;;;;5069295;28;20089;-78
2021/05/31 14:29:19;;;;;;;2.97;1.95;;;;;;;;;;5066740;28;20375;-77
2021/05/31 14:31:44;;;;;;;4.50;2.40;;;;;;;;;;5056922;28;20023;-76
2021/05/31 14:34:09;;;;;;;3.13;2.05;;;;;;;;;;5067935;28;20052;-76
2021/05/31 14:36:35;;;;;;;4.07;2.65;;;;;;;;;;5060087;28;20028;-76
2021/05/31 14:39:00;;;;;;;4.60;2.80;;;;;;;;;;5049359;28;20013;-75
2021/05/31 14:41:26;;;;;;;3.90;2.47;;;;;;;;;;5050736;28;20483;-75
2021/05/31 14:43:51;;;;;;;4.45;2.55;;;;;;;;;;5068094;28;20017;-74
2021/05/31 14:46:16;;;;;;;5.13;2.40;;;;;;;;;;5060313;28;20033;-78
2021/05/31 14:48:44;;;;;;;5.18;1.98;;;;;;;;;;5048866;28;20107;-76
2021/05/31 14:51:12;;;;;;;5.88;2.05;;;;;;;;;;5055862;28;20546;-76
2021/05/31 14:53:38;;;;;;;4.28;2.38;;;;;;;;;;5054961;28;20078;-75
2021/05/31 14:56:03;;;;;;;5.57;2.30;;;;;;;;;;5051332;28;20021;-76
2021/05/31 14:58:28;;;;;;;2.60;1.92;;;;;;;;;;5059803;28;20058;-77
2021/05/31 15:00:53;;;;;;;4.30;2.20;;;;;;;;;;5059913;28;20025;-76